sensor_id;sensor_type;location;lat;lon;timestamp;P1;durP1;ratioP1;P2;durP2;ratioP2
70558;SDS011;58108;48.094;11.838;2023-04-08T00:01:21;12.93;;;4.07;;
70558;SDS011;58108;48.094;11.838;2023-04-08T00:03:46;7.63;;;2.90;;
70558;SDS011;58108;48.094;11.838;2023-04-08T00:06:11;6.67;;;2.60;;
70558;SDS011;58108;48.094;11.838;2023-04-08T00:08:36;8.23;;;2.77;;
70558;SDS011;58108;48.094;11.838;2023-04-08T00:11:02;15.53;;;6.20;;
70558;SDS011;58108;48.094;11.838;2023-04-08T00:13:27;11.20;;;4.17;;
70558;SDS011;58108;48.094;11.838;2023-04-08T00:15:52;7.10;;;3.27;;
70558;SDS011;58108;48.094;11.838;2023-04-08T00:18:17;9.23;;;3.43;;
70558;SDS011;58108;48.094;11.838;2023-04-08T00:20:43;15.70;;;5.90;;
70558;SDS011;58108;48.094;11.838;2023-04-08T00:23:08;12.30;;;5.10;;
70558;SDS011;58108;48.094;11.838;2023-04-08T00:25:33;12.37;;;5.13;;
70558;SDS011;58108;48.094;11.838;2023-04-08T00:27:58;12.57;;;4.93;;
70558;SDS011;58108;48.094;11.838;2023-04-08T00:30:24;11.87;;;5.17;;
70558;SDS011;58108;48.094;11.838;2023-04-08T00:32:51;13.57;;;5.38;;
70558;SDS011;58108;48.094;11.838;2023-04-08T00:35:16;12.90;;;4.90;;
70558;SDS011;58108;48.094;11.838;2023-04-08T00:37:41;14.10;;;5.80;;
70558;SDS011;58108;48.094;11.838;2023-04-08T00:40:06;11.27;;;5.00;;
70558;SDS011;58108;48.094;11.838;2023-04-08T00:42:32;10.23;;;4.43;;
70558;SDS011;58108;48.094;11.838;2023-04-08T00:44:57;12.63;;;4.97;;
70558;SDS011;58108;48.094;11.838;2023-04-08T00:47:22;10.80;;;4.87;;
70558;SDS011;58108;48.094;11.838;2023-04-08T00:49:47;8.33;;;3.33;;
70558;SDS011;58108;48.094;11.838;2023-04-08T00:52:13;12.43;;;4.23;;
70558;SDS011;58108;48.094;11.838;2023-04-08T00:54:38;13.93;;;5.47;;
70558;SDS011;58108;48.094;11.838;2023-04-08T00:57:04;11.43;;;4.77;;
70558;SDS011;58108;48.094;11.838;2023-04-08T00:59:29;12.38;;;5.22;;
70558;SDS011;58108;48.094;11.838;2023-04-08T01:02:00;12.17;;;4.27;;
70558;SDS011;58108;48.094;11.838;2023-04-08T01:09:51;12.70;;;5.50;;
70558;SDS011;58108;48.094;11.838;2023-04-08T01:12:19;13.18;;;4.45;;
70558;SDS011;58108;48.094;11.838;2023-04-08T01:14:46;12.93;;;5.00;;
70558;SDS011;58108;48.094;11.838;2023-04-08T01:17:12;11.40;;;4.10;;
70558;SDS011;58108;48.094;11.838;2023-04-08T01:19:39;13.07;;;6.03;;
70558;SDS011;58108;48.094;11.838;2023-04-08T01:22:14;10.13;;;4.70;;
70558;SDS011;58108;48.094;11.838;2023-04-08T01:24:43;14.10;;;5.68;;
70558;SDS011;58108;48.094;11.838;2023-04-08T01:27:09;12.85;;;5.30;;
70558;SDS011;58108;48.094;11.838;2023-04-08T01:29:35;16.40;;;6.38;;
70558;SDS011;58108;48.094;11.838;2023-04-08T01:32:01;14.95;;;6.30;;
70558;SDS011;58108;48.094;11.838;2023-04-08T01:34:27;16.00;;;6.72;;
70558;SDS011;58108;48.094;11.838;2023-04-08T01:36:53;15.45;;;5.82;;
70558;SDS011;58108;48.094;11.838;2023-04-08T01:39:19;12.60;;;5.28;;
70558;SDS011;58108;48.094;11.838;2023-04-08T01:41:45;11.93;;;5.23;;
70558;SDS011;58108;48.094;11.838;2023-04-08T01:44:11;14.50;;;5.72;;
70558;SDS011;58108;48.094;11.838;2023-04-08T01:46:37;11.90;;;4.73;;
70558;SDS011;58108;48.094;11.838;2023-04-08T01:49:03;12.30;;;5.50;;
70558;SDS011;58108;48.094;11.838;2023-04-08T01:51:30;12.15;;;5.50;;
70558;SDS011;58108;48.094;11.838;2023-04-08T01:53:56;14.00;;;5.17;;
70558;SDS011;58108;48.094;11.838;2023-04-08T01:56:21;11.37;;;4.83;;
70558;SDS011;58108;48.094;11.838;2023-04-08T01:58:47;13.57;;;5.35;;
70558;SDS011;58108;48.094;11.838;2023-04-08T02:01:16;13.18;;;5.40;;
70558;SDS011;58108;48.094;11.838;2023-04-08T02:03:42;12.48;;;5.35;;
70558;SDS011;58108;48.094;11.838;2023-04-08T02:06:08;15.00;;;5.63;;
70558;SDS011;58108;48.094;11.838;2023-04-08T02:08:33;14.00;;;5.33;;
70558;SDS011;58108;48.094;11.838;2023-04-08T02:11:00;14.80;;;5.78;;
70558;SDS011;58108;48.094;11.838;2023-04-08T02:13:25;14.03;;;5.97;;
70558;SDS011;58108;48.094;11.838;2023-04-08T02:15:52;12.80;;;5.78;;
70558;SDS011;58108;48.094;11.838;2023-04-08T02:18:23;11.93;;;4.93;;
70558;SDS011;58108;48.094;11.838;2023-04-08T02:20:52;15.03;;;5.50;;
70558;SDS011;58108;48.094;11.838;2023-04-08T02:23:21;13.50;;;5.55;;
70558;SDS011;58108;48.094;11.838;2023-04-08T02:25:48;13.93;;;5.90;;
70558;SDS011;58108;48.094;11.838;2023-04-08T02:28:14;13.77;;;5.50;;
70558;SDS011;58108;48.094;11.838;2023-04-08T02:30:42;13.35;;;5.15;;
70558;SDS011;58108;48.094;11.838;2023-04-08T02:33:08;12.97;;;5.07;;
70558;SDS011;58108;48.094;11.838;2023-04-08T02:35:34;14.25;;;5.75;;
70558;SDS011;58108;48.094;11.838;2023-04-08T02:37:59;12.55;;;5.00;;
70558;SDS011;58108;48.094;11.838;2023-04-08T02:40:30;11.90;;;4.63;;
70558;SDS011;58108;48.094;11.838;2023-04-08T02:42:55;11.50;;;4.65;;
70558;SDS011;58108;48.094;11.838;2023-04-08T02:45:21;11.33;;;4.47;;
70558;SDS011;58108;48.094;11.838;2023-04-08T02:47:46;11.13;;;5.05;;
70558;SDS011;58108;48.094;11.838;2023-04-08T02:50:11;11.90;;;5.03;;
70558;SDS011;58108;48.094;11.838;2023-04-08T02:52:37;10.27;;;3.30;;
70558;SDS011;58108;48.094;11.838;2023-04-08T02:55:02;13.50;;;5.27;;
70558;SDS011;58108;48.094;11.838;2023-04-08T02:57:30;7.27;;;2.53;;
70558;SDS011;58108;48.094;11.838;2023-04-08T02:59:55;11.17;;;4.63;;
70558;SDS011;58108;48.094;11.838;2023-04-08T03:02:21;11.93;;;4.70;;
70558;SDS011;58108;48.094;11.838;2023-04-08T03:04:46;15.17;;;5.10;;
70558;SDS011;58108;48.094;11.838;2023-04-08T03:07:11;10.73;;;4.40;;
70558;SDS011;58108;48.094;11.838;2023-04-08T03:09:36;10.20;;;4.17;;
70558;SDS011;58108;48.094;11.838;2023-04-08T03:12:01;10.00;;;3.63;;
70558;SDS011;58108;48.094;11.838;2023-04-08T03:14:27;12.77;;;5.10;;
70558;SDS011;58108;48.094;11.838;2023-04-08T03:16:52;11.13;;;5.13;;
70558;SDS011;58108;48.094;11.838;2023-04-08T03:19:17;13.20;;;5.33;;
70558;SDS011;58108;48.094;11.838;2023-04-08T03:21:42;13.13;;;5.07;;
70558;SDS011;58108;48.094;11.838;2023-04-08T03:24:07;13.53;;;5.17;;
70558;SDS011;58108;48.094;11.838;2023-04-08T03:26:32;12.17;;;5.27;;
70558;SDS011;58108;48.094;11.838;2023-04-08T03:28:58;13.60;;;5.53;;
70558;SDS011;58108;48.094;11.838;2023-04-08T03:31:23;12.87;;;4.40;;
70558;SDS011;58108;48.094;11.838;2023-04-08T03:33:48;12.90;;;5.27;;
70558;SDS011;58108;48.094;11.838;2023-04-08T03:36:13;13.13;;;5.60;;
70558;SDS011;58108;48.094;11.838;2023-04-08T03:38:38;12.97;;;5.80;;
70558;SDS011;58108;48.094;11.838;2023-04-08T03:41:03;14.00;;;5.80;;
70558;SDS011;58108;48.094;11.838;2023-04-08T03:43:29;14.67;;;5.07;;
70558;SDS011;58108;48.094;11.838;2023-04-08T03:45:54;14.52;;;5.43;;
70558;SDS011;58108;48.094;11.838;2023-04-08T03:48:20;13.03;;;5.30;;
70558;SDS011;58108;48.094;11.838;2023-04-08T03:50:45;12.70;;;5.47;;
70558;SDS011;58108;48.094;11.838;2023-04-08T03:53:10;15.90;;;6.10;;
70558;SDS011;58108;48.094;11.838;2023-04-08T03:55:36;14.90;;;6.45;;
70558;SDS011;58108;48.094;11.838;2023-04-08T03:58:02;15.20;;;6.07;;
70558;SDS011;58108;48.094;11.838;2023-04-08T04:00:27;15.63;;;5.93;;
70558;SDS011;58108;48.094;11.838;2023-04-08T04:02:52;12.68;;;5.38;;
70558;SDS011;58108;48.094;11.838;2023-04-08T04:05:19;13.38;;;5.28;;
70558;SDS011;58108;48.094;11.838;2023-04-08T04:07:44;12.40;;;5.23;;
70558;SDS011;58108;48.094;11.838;2023-04-08T04:10:09;15.87;;;5.77;;
70558;SDS011;58108;48.094;11.838;2023-04-08T04:12:35;14.63;;;5.47;;
70558;SDS011;58108;48.094;11.838;2023-04-08T04:15:00;16.57;;;6.27;;
70558;SDS011;58108;48.094;11.838;2023-04-08T04:17:26;15.17;;;6.10;;
70558;SDS011;58108;48.094;11.838;2023-04-08T04:19:51;14.00;;;6.20;;
70558;SDS011;58108;48.094;11.838;2023-04-08T04:22:16;12.83;;;4.67;;
70558;SDS011;58108;48.094;11.838;2023-04-08T04:24:45;16.63;;;6.30;;
70558;SDS011;58108;48.094;11.838;2023-04-08T04:27:10;15.30;;;6.30;;
70558;SDS011;58108;48.094;11.838;2023-04-08T04:29:35;17.50;;;6.70;;
70558;SDS011;58108;48.094;11.838;2023-04-08T04:32:00;18.03;;;7.40;;
70558;SDS011;58108;48.094;11.838;2023-04-08T04:34:26;14.47;;;6.00;;
70558;SDS011;58108;48.094;11.838;2023-04-08T04:36:51;16.53;;;6.07;;
70558;SDS011;58108;48.094;11.838;2023-04-08T04:39:16;17.13;;;6.97;;
70558;SDS011;58108;48.094;11.838;2023-04-08T04:41:41;20.03;;;7.53;;
70558;SDS011;58108;48.094;11.838;2023-04-08T04:44:08;19.92;;;7.13;;
70558;SDS011;58108;48.094;11.838;2023-04-08T04:46:33;17.73;;;6.87;;
70558;SDS011;58108;48.094;11.838;2023-04-08T04:48:58;14.35;;;5.68;;
70558;SDS011;58108;48.094;11.838;2023-04-08T04:51:23;15.77;;;6.40;;
70558;SDS011;58108;48.094;11.838;2023-04-08T04:53:49;16.15;;;6.32;;
70558;SDS011;58108;48.094;11.838;2023-04-08T04:56:14;16.25;;;6.13;;
70558;SDS011;58108;48.094;11.838;2023-04-08T04:58:39;15.83;;;6.37;;
70558;SDS011;58108;48.094;11.838;2023-04-08T05:01:04;17.23;;;6.87;;
70558;SDS011;58108;48.094;11.838;2023-04-08T05:03:30;15.67;;;5.40;;
70558;SDS011;58108;48.094;11.838;2023-04-08T05:05:55;14.37;;;6.37;;
70558;SDS011;58108;48.094;11.838;2023-04-08T05:08:20;15.53;;;5.63;;
70558;SDS011;58108;48.094;11.838;2023-04-08T05:10:46;17.77;;;6.73;;
70558;SDS011;58108;48.094;11.838;2023-04-08T05:13:11;17.67;;;6.63;;
70558;SDS011;58108;48.094;11.838;2023-04-08T05:15:36;16.27;;;6.87;;
70558;SDS011;58108;48.094;11.838;2023-04-08T05:18:01;17.87;;;6.90;;
70558;SDS011;58108;48.094;11.838;2023-04-08T05:20:26;9.57;;;3.77;;
70558;SDS011;58108;48.094;11.838;2023-04-08T05:22:52;17.90;;;6.20;;
70558;SDS011;58108;48.094;11.838;2023-04-08T05:25:17;16.57;;;6.90;;
70558;SDS011;58108;48.094;11.838;2023-04-08T05:27:42;16.53;;;6.57;;
70558;SDS011;58108;48.094;11.838;2023-04-08T05:30:08;15.00;;;6.20;;
70558;SDS011;58108;48.094;11.838;2023-04-08T05:32:33;15.20;;;6.63;;
70558;SDS011;58108;48.094;11.838;2023-04-08T05:35:00;13.90;;;5.63;;
70558;SDS011;58108;48.094;11.838;2023-04-08T05:37:25;17.85;;;7.55;;
70558;SDS011;58108;48.094;11.838;2023-04-08T05:39:51;16.50;;;7.17;;
70558;SDS011;58108;48.094;11.838;2023-04-08T05:42:16;18.27;;;7.10;;
70558;SDS011;58108;48.094;11.838;2023-04-08T05:44:41;19.83;;;7.57;;
70558;SDS011;58108;48.094;11.838;2023-04-08T05:47:07;18.00;;;6.87;;
70558;SDS011;58108;48.094;11.838;2023-04-08T05:49:33;18.43;;;7.13;;
70558;SDS011;58108;48.094;11.838;2023-04-08T05:51:58;15.10;;;5.53;;
70558;SDS011;58108;48.094;11.838;2023-04-08T05:54:23;15.02;;;6.90;;
70558;SDS011;58108;48.094;11.838;2023-04-08T05:56:48;20.52;;;8.02;;
70558;SDS011;58108;48.094;11.838;2023-04-08T05:59:14;18.53;;;6.80;;
70558;SDS011;58108;48.094;11.838;2023-04-08T06:01:39;18.57;;;7.27;;
70558;SDS011;58108;48.094;11.838;2023-04-08T06:04:04;20.63;;;7.97;;
70558;SDS011;58108;48.094;11.838;2023-04-08T06:06:30;20.03;;;7.43;;
70558;SDS011;58108;48.094;11.838;2023-04-08T06:08:55;14.77;;;5.87;;
70558;SDS011;58108;48.094;11.838;2023-04-08T06:11:20;20.10;;;6.03;;
70558;SDS011;58108;48.094;11.838;2023-04-08T06:13:45;20.83;;;7.80;;
70558;SDS011;58108;48.094;11.838;2023-04-08T06:16:11;18.13;;;7.30;;
70558;SDS011;58108;48.094;11.838;2023-04-08T06:18:36;18.67;;;7.80;;
70558;SDS011;58108;48.094;11.838;2023-04-08T06:21:02;17.87;;;6.33;;
70558;SDS011;58108;48.094;11.838;2023-04-08T06:23:27;19.83;;;8.40;;
70558;SDS011;58108;48.094;11.838;2023-04-08T06:25:52;18.70;;;6.97;;
70558;SDS011;58108;48.094;11.838;2023-04-08T06:28:17;19.02;;;7.82;;
70558;SDS011;58108;48.094;11.838;2023-04-08T06:30:42;16.90;;;6.67;;
70558;SDS011;58108;48.094;11.838;2023-04-08T06:33:08;19.17;;;6.27;;
70558;SDS011;58108;48.094;11.838;2023-04-08T06:35:33;17.63;;;7.37;;
70558;SDS011;58108;48.094;11.838;2023-04-08T06:37:58;19.00;;;8.00;;
70558;SDS011;58108;48.094;11.838;2023-04-08T06:40:23;18.30;;;8.23;;
70558;SDS011;58108;48.094;11.838;2023-04-08T06:42:48;18.20;;;7.47;;
70558;SDS011;58108;48.094;11.838;2023-04-08T06:45:14;23.30;;;7.77;;
70558;SDS011;58108;48.094;11.838;2023-04-08T06:47:39;19.07;;;7.87;;
70558;SDS011;58108;48.094;11.838;2023-04-08T06:50:05;16.23;;;6.63;;
70558;SDS011;58108;48.094;11.838;2023-04-08T06:52:30;22.47;;;8.97;;
70558;SDS011;58108;48.094;11.838;2023-04-08T06:54:55;19.07;;;7.27;;
70558;SDS011;58108;48.094;11.838;2023-04-08T06:57:21;25.23;;;9.17;;
70558;SDS011;58108;48.094;11.838;2023-04-08T06:59:46;18.50;;;6.90;;
70558;SDS011;58108;48.094;11.838;2023-04-08T07:02:11;22.77;;;7.93;;
70558;SDS011;58108;48.094;11.838;2023-04-08T07:04:36;16.93;;;6.63;;
70558;SDS011;58108;48.094;11.838;2023-04-08T07:07:01;20.80;;;7.77;;
70558;SDS011;58108;48.094;11.838;2023-04-08T07:09:27;14.87;;;5.73;;
70558;SDS011;58108;48.094;11.838;2023-04-08T07:11:52;20.67;;;8.73;;
70558;SDS011;58108;48.094;11.838;2023-04-08T07:14:17;21.63;;;8.17;;
70558;SDS011;58108;48.094;11.838;2023-04-08T07:16:43;22.92;;;8.93;;
70558;SDS011;58108;48.094;11.838;2023-04-08T07:19:08;18.30;;;7.93;;
70558;SDS011;58108;48.094;11.838;2023-04-08T07:21:33;16.73;;;6.87;;
70558;SDS011;58108;48.094;11.838;2023-04-08T07:23:59;14.43;;;5.43;;
70558;SDS011;58108;48.094;11.838;2023-04-08T07:26:24;19.27;;;8.03;;
70558;SDS011;58108;48.094;11.838;2023-04-08T07:28:49;19.33;;;7.40;;
70558;SDS011;58108;48.094;11.838;2023-04-08T07:31:16;21.23;;;9.45;;
70558;SDS011;58108;48.094;11.838;2023-04-08T07:33:41;20.97;;;9.77;;
70558;SDS011;58108;48.094;11.838;2023-04-08T07:36:10;16.13;;;6.80;;
70558;SDS011;58108;48.094;11.838;2023-04-08T07:38:36;21.23;;;9.13;;
70558;SDS011;58108;48.094;11.838;2023-04-08T07:41:01;18.20;;;8.10;;
70558;SDS011;58108;48.094;11.838;2023-04-08T07:43:26;19.10;;;7.43;;
70558;SDS011;58108;48.094;11.838;2023-04-08T07:45:51;27.53;;;9.67;;
70558;SDS011;58108;48.094;11.838;2023-04-08T07:48:16;28.47;;;10.43;;
70558;SDS011;58108;48.094;11.838;2023-04-08T07:50:42;25.70;;;11.00;;
70558;SDS011;58108;48.094;11.838;2023-04-08T07:53:07;20.97;;;8.80;;
70558;SDS011;58108;48.094;11.838;2023-04-08T07:55:35;11.37;;;5.83;;
70558;SDS011;58108;48.094;11.838;2023-04-08T07:58:00;17.60;;;6.53;;
70558;SDS011;58108;48.094;11.838;2023-04-08T08:00:26;17.33;;;6.43;;
70558;SDS011;58108;48.094;11.838;2023-04-08T08:02:51;24.90;;;10.20;;
70558;SDS011;58108;48.094;11.838;2023-04-08T08:05:17;28.97;;;12.10;;
70558;SDS011;58108;48.094;11.838;2023-04-08T08:07:42;45.03;;;17.40;;
70558;SDS011;58108;48.094;11.838;2023-04-08T08:10:08;39.13;;;16.10;;
70558;SDS011;58108;48.094;11.838;2023-04-08T08:12:33;16.40;;;7.82;;
70558;SDS011;58108;48.094;11.838;2023-04-08T08:14:58;24.03;;;9.80;;
70558;SDS011;58108;48.094;11.838;2023-04-08T08:17:23;15.40;;;7.40;;
70558;SDS011;58108;48.094;11.838;2023-04-08T08:19:49;25.17;;;11.53;;
70558;SDS011;58108;48.094;11.838;2023-04-08T08:22:14;22.53;;;10.07;;
70558;SDS011;58108;48.094;11.838;2023-04-08T08:24:40;18.13;;;7.47;;
70558;SDS011;58108;48.094;11.838;2023-04-08T08:27:05;17.57;;;7.63;;
70558;SDS011;58108;48.094;11.838;2023-04-08T08:29:30;16.93;;;7.30;;
70558;SDS011;58108;48.094;11.838;2023-04-08T08:31:55;14.75;;;6.90;;
70558;SDS011;58108;48.094;11.838;2023-04-08T08:34:24;20.40;;;8.65;;
70558;SDS011;58108;48.094;11.838;2023-04-08T08:36:49;20.73;;;8.57;;
70558;SDS011;58108;48.094;11.838;2023-04-08T08:39:15;17.60;;;6.50;;
70558;SDS011;58108;48.094;11.838;2023-04-08T08:41:40;18.50;;;7.50;;
70558;SDS011;58108;48.094;11.838;2023-04-08T08:44:06;11.13;;;5.18;;
70558;SDS011;58108;48.094;11.838;2023-04-08T08:46:32;14.07;;;5.83;;
70558;SDS011;58108;48.094;11.838;2023-04-08T08:48:58;14.23;;;6.57;;
70558;SDS011;58108;48.094;11.838;2023-04-08T08:51:23;18.60;;;8.67;;
70558;SDS011;58108;48.094;11.838;2023-04-08T08:53:49;14.93;;;6.30;;
70558;SDS011;58108;48.094;11.838;2023-04-08T08:56:17;18.37;;;8.20;;
70558;SDS011;58108;48.094;11.838;2023-04-08T08:58:42;22.02;;;9.07;;
70558;SDS011;58108;48.094;11.838;2023-04-08T09:04:12;17.55;;;8.57;;
70558;SDS011;58108;48.094;11.838;2023-04-08T09:06:39;20.40;;;8.53;;
70558;SDS011;58108;48.094;11.838;2023-04-08T09:09:05;17.38;;;8.82;;
70558;SDS011;58108;48.094;11.838;2023-04-08T09:11:34;20.00;;;8.43;;
70558;SDS011;58108;48.094;11.838;2023-04-08T09:13:59;15.23;;;6.27;;
70558;SDS011;58108;48.094;11.838;2023-04-08T09:16:24;16.33;;;7.10;;
70558;SDS011;58108;48.094;11.838;2023-04-08T09:18:50;10.43;;;4.53;;
70558;SDS011;58108;48.094;11.838;2023-04-08T09:21:16;18.10;;;7.87;;
70558;SDS011;58108;48.094;11.838;2023-04-08T09:23:45;18.53;;;7.90;;
70558;SDS011;58108;48.094;11.838;2023-04-08T09:28:40;19.83;;;9.10;;
70558;SDS011;58108;48.094;11.838;2023-04-08T09:33:44;20.37;;;8.23;;
70558;SDS011;58108;48.094;11.838;2023-04-08T09:36:10;18.38;;;7.80;;
70558;SDS011;58108;48.094;11.838;2023-04-08T09:38:35;17.40;;;7.80;;
70558;SDS011;58108;48.094;11.838;2023-04-08T09:41:01;22.67;;;9.07;;
70558;SDS011;58108;48.094;11.838;2023-04-08T09:43:30;18.20;;;7.68;;
70558;SDS011;58108;48.094;11.838;2023-04-08T09:45:57;11.88;;;6.20;;
70558;SDS011;58108;48.094;11.838;2023-04-08T09:48:24;17.70;;;7.45;;
70558;SDS011;58108;48.094;11.838;2023-04-08T09:50:51;12.60;;;6.37;;
70558;SDS011;58108;48.094;11.838;2023-04-08T09:53:24;17.63;;;7.90;;
70558;SDS011;58108;48.094;11.838;2023-04-08T09:55:52;19.38;;;8.23;;
70558;SDS011;58108;48.094;11.838;2023-04-08T09:58:20;8.05;;;3.70;;
70558;SDS011;58108;48.094;11.838;2023-04-08T10:00:48;10.90;;;5.57;;
70558;SDS011;58108;48.094;11.838;2023-04-08T10:05:48;12.75;;;5.82;;
70558;SDS011;58108;48.094;11.838;2023-04-08T10:08:14;14.63;;;5.88;;
70558;SDS011;58108;48.094;11.838;2023-04-08T10:10:39;17.30;;;6.93;;
70558;SDS011;58108;48.094;11.838;2023-04-08T10:13:05;15.32;;;6.47;;
70558;SDS011;58108;48.094;11.838;2023-04-08T10:15:31;14.90;;;6.40;;
70558;SDS011;58108;48.094;11.838;2023-04-08T10:23:03;14.38;;;5.93;;
70558;SDS011;58108;48.094;11.838;2023-04-08T10:25:36;15.77;;;6.80;;
70558;SDS011;58108;48.094;11.838;2023-04-08T10:30:42;12.83;;;5.97;;
70558;SDS011;58108;48.094;11.838;2023-04-08T10:33:09;16.13;;;7.63;;
70558;SDS011;58108;48.094;11.838;2023-04-08T10:35:35;14.95;;;6.75;;
70558;SDS011;58108;48.094;11.838;2023-04-08T10:38:01;14.32;;;4.68;;
70558;SDS011;58108;48.094;11.838;2023-04-08T10:40:26;16.43;;;8.10;;
70558;SDS011;58108;48.094;11.838;2023-04-08T10:42:58;14.67;;;6.17;;
70558;SDS011;58108;48.094;11.838;2023-04-08T10:45:23;17.63;;;8.18;;
70558;SDS011;58108;48.094;11.838;2023-04-08T10:47:49;17.90;;;7.90;;
70558;SDS011;58108;48.094;11.838;2023-04-08T10:50:14;16.83;;;6.90;;
70558;SDS011;58108;48.094;11.838;2023-04-08T10:55:11;18.50;;;7.40;;
70558;SDS011;58108;48.094;11.838;2023-04-08T10:57:36;19.00;;;8.13;;
70558;SDS011;58108;48.094;11.838;2023-04-08T11:00:04;16.35;;;8.00;;
70558;SDS011;58108;48.094;11.838;2023-04-08T11:02:33;14.57;;;7.83;;
70558;SDS011;58108;48.094;11.838;2023-04-08T11:05:01;15.07;;;6.03;;
70558;SDS011;58108;48.094;11.838;2023-04-08T11:07:27;15.27;;;6.63;;
70558;SDS011;58108;48.094;11.838;2023-04-08T11:09:52;13.73;;;6.37;;
70558;SDS011;58108;48.094;11.838;2023-04-08T11:12:17;15.03;;;7.20;;
70558;SDS011;58108;48.094;11.838;2023-04-08T11:14:42;16.40;;;6.17;;
70558;SDS011;58108;48.094;11.838;2023-04-08T11:17:08;16.13;;;7.80;;
70558;SDS011;58108;48.094;11.838;2023-04-08T11:19:34;18.43;;;8.23;;
70558;SDS011;58108;48.094;11.838;2023-04-08T11:22:00;20.17;;;8.98;;
70558;SDS011;58108;48.094;11.838;2023-04-08T11:24:26;15.57;;;7.10;;
70558;SDS011;58108;48.094;11.838;2023-04-08T11:26:52;20.90;;;8.97;;
70558;SDS011;58108;48.094;11.838;2023-04-08T11:29:17;19.60;;;8.70;;
70558;SDS011;58108;48.094;11.838;2023-04-08T11:31:43;16.13;;;7.23;;
70558;SDS011;58108;48.094;11.838;2023-04-08T11:34:08;18.93;;;8.40;;
70558;SDS011;58108;48.094;11.838;2023-04-08T11:36:34;18.23;;;8.73;;
70558;SDS011;58108;48.094;11.838;2023-04-08T11:39:05;20.25;;;9.23;;
70558;SDS011;58108;48.094;11.838;2023-04-08T11:41:37;18.38;;;8.18;;
70558;SDS011;58108;48.094;11.838;2023-04-08T11:44:03;22.83;;;9.75;;
70558;SDS011;58108;48.094;11.838;2023-04-08T11:46:30;23.33;;;10.85;;
70558;SDS011;58108;48.094;11.838;2023-04-08T11:49:02;20.30;;;8.90;;
70558;SDS011;58108;48.094;11.838;2023-04-08T11:51:28;21.87;;;10.43;;
70558;SDS011;58108;48.094;11.838;2023-04-08T11:53:53;28.00;;;13.15;;
70558;SDS011;58108;48.094;11.838;2023-04-08T11:56:19;18.33;;;8.40;;
70558;SDS011;58108;48.094;11.838;2023-04-08T11:58:45;18.33;;;7.60;;
70558;SDS011;58108;48.094;11.838;2023-04-08T12:01:10;22.48;;;8.25;;
70558;SDS011;58108;48.094;11.838;2023-04-08T12:03:36;17.43;;;7.20;;
70558;SDS011;58108;48.094;11.838;2023-04-08T12:06:01;17.43;;;7.80;;
70558;SDS011;58108;48.094;11.838;2023-04-08T12:08:26;14.33;;;6.70;;
70558;SDS011;58108;48.094;11.838;2023-04-08T12:10:52;14.65;;;6.43;;
70558;SDS011;58108;48.094;11.838;2023-04-08T12:13:17;13.70;;;5.72;;
70558;SDS011;58108;48.094;11.838;2023-04-08T12:15:43;13.17;;;6.10;;
70558;SDS011;58108;48.094;11.838;2023-04-08T12:18:08;18.30;;;8.03;;
70558;SDS011;58108;48.094;11.838;2023-04-08T12:20:33;16.33;;;7.60;;
70558;SDS011;58108;48.094;11.838;2023-04-08T12:22:58;16.37;;;7.13;;
70558;SDS011;58108;48.094;11.838;2023-04-08T12:25:24;17.37;;;7.77;;
70558;SDS011;58108;48.094;11.838;2023-04-08T12:27:49;16.60;;;7.23;;
70558;SDS011;58108;48.094;11.838;2023-04-08T12:30:14;19.30;;;8.30;;
70558;SDS011;58108;48.094;11.838;2023-04-08T12:32:40;10.57;;;6.20;;
70558;SDS011;58108;48.094;11.838;2023-04-08T12:35:06;15.02;;;5.50;;
70558;SDS011;58108;48.094;11.838;2023-04-08T12:37:32;15.93;;;5.93;;
70558;SDS011;58108;48.094;11.838;2023-04-08T12:39:57;13.73;;;5.27;;
70558;SDS011;58108;48.094;11.838;2023-04-08T12:42:22;16.13;;;6.90;;
70558;SDS011;58108;48.094;11.838;2023-04-08T12:44:47;11.80;;;5.33;;
70558;SDS011;58108;48.094;11.838;2023-04-08T12:47:13;14.27;;;6.17;;
70558;SDS011;58108;48.094;11.838;2023-04-08T12:49:38;14.30;;;6.37;;
70558;SDS011;58108;48.094;11.838;2023-04-08T12:52:03;14.27;;;6.63;;
70558;SDS011;58108;48.094;11.838;2023-04-08T12:54:29;13.70;;;5.35;;
70558;SDS011;58108;48.094;11.838;2023-04-08T12:56:55;20.90;;;7.63;;
70558;SDS011;58108;48.094;11.838;2023-04-08T12:59:21;15.10;;;6.10;;
70558;SDS011;58108;48.094;11.838;2023-04-08T13:01:46;15.37;;;6.20;;
70558;SDS011;58108;48.094;11.838;2023-04-08T13:04:11;13.73;;;6.23;;
70558;SDS011;58108;48.094;11.838;2023-04-08T13:06:37;17.63;;;6.97;;
70558;SDS011;58108;48.094;11.838;2023-04-08T13:09:02;16.17;;;6.67;;
70558;SDS011;58108;48.094;11.838;2023-04-08T13:11:27;19.07;;;7.57;;
70558;SDS011;58108;48.094;11.838;2023-04-08T13:13:52;14.47;;;6.73;;
70558;SDS011;58108;48.094;11.838;2023-04-08T13:16:17;15.53;;;6.03;;
70558;SDS011;58108;48.094;11.838;2023-04-08T13:18:43;18.85;;;7.45;;
70558;SDS011;58108;48.094;11.838;2023-04-08T13:21:09;14.87;;;6.87;;
70558;SDS011;58108;48.094;11.838;2023-04-08T13:23:34;19.17;;;8.90;;
70558;SDS011;58108;48.094;11.838;2023-04-08T13:25:59;18.57;;;7.20;;
70558;SDS011;58108;48.094;11.838;2023-04-08T13:28:25;17.98;;;7.63;;
70558;SDS011;58108;48.094;11.838;2023-04-08T13:30:50;16.03;;;7.50;;
70558;SDS011;58108;48.094;11.838;2023-04-08T13:33:15;12.43;;;5.33;;
70558;SDS011;58108;48.094;11.838;2023-04-08T13:35:41;14.90;;;7.53;;
70558;SDS011;58108;48.094;11.838;2023-04-08T13:38:06;16.60;;;7.57;;
70558;SDS011;58108;48.094;11.838;2023-04-08T13:40:31;15.93;;;7.00;;
70558;SDS011;58108;48.094;11.838;2023-04-08T13:42:57;13.55;;;6.00;;
70558;SDS011;58108;48.094;11.838;2023-04-08T13:45:22;13.98;;;6.60;;
70558;SDS011;58108;48.094;11.838;2023-04-08T13:47:47;16.97;;;7.20;;
70558;SDS011;58108;48.094;11.838;2023-04-08T13:50:13;15.17;;;6.37;;
70558;SDS011;58108;48.094;11.838;2023-04-08T13:52:38;12.67;;;6.03;;
70558;SDS011;58108;48.094;11.838;2023-04-08T13:55:03;14.53;;;6.20;;
70558;SDS011;58108;48.094;11.838;2023-04-08T13:57:29;17.43;;;7.60;;
70558;SDS011;58108;48.094;11.838;2023-04-08T13:59:54;14.37;;;6.83;;
70558;SDS011;58108;48.094;11.838;2023-04-08T14:02:19;17.50;;;8.23;;
70558;SDS011;58108;48.094;11.838;2023-04-08T14:04:45;14.63;;;6.72;;
70558;SDS011;58108;48.094;11.838;2023-04-08T14:07:11;12.27;;;5.63;;
70558;SDS011;58108;48.094;11.838;2023-04-08T14:09:36;14.32;;;6.00;;
70558;SDS011;58108;48.094;11.838;2023-04-08T14:12:02;15.63;;;7.13;;
70558;SDS011;58108;48.094;11.838;2023-04-08T14:14:27;16.08;;;6.68;;
70558;SDS011;58108;48.094;11.838;2023-04-08T14:16:52;17.88;;;8.65;;
70558;SDS011;58108;48.094;11.838;2023-04-08T14:19:17;15.83;;;5.97;;
70558;SDS011;58108;48.094;11.838;2023-04-08T14:21:42;14.80;;;5.90;;
70558;SDS011;58108;48.094;11.838;2023-04-08T14:24:08;16.00;;;6.97;;
70558;SDS011;58108;48.094;11.838;2023-04-08T14:26:33;19.37;;;8.40;;
70558;SDS011;58108;48.094;11.838;2023-04-08T14:29:03;16.35;;;7.40;;
70558;SDS011;58108;48.094;11.838;2023-04-08T14:31:28;18.38;;;8.02;;
70558;SDS011;58108;48.094;11.838;2023-04-08T14:33:54;16.47;;;7.83;;
70558;SDS011;58108;48.094;11.838;2023-04-08T14:36:19;19.50;;;8.70;;
70558;SDS011;58108;48.094;11.838;2023-04-08T14:38:45;26.23;;;11.85;;